createdAt,value
2023-01-23T00:00:20.036Z,-0.23
2023-01-23T00:04:36.100Z,-0.32
2023-01-23T00:08:48.724Z,-0.32
2023-01-23T00:13:03.750Z,-0.32
2023-01-23T00:17:07.856Z,-0.20
2023-01-23T00:21:18.070Z,-0.28
2023-01-23T00:25:25.387Z,-0.42
2023-01-23T00:29:29.511Z,-0.25
2023-01-23T00:33:34.382Z,-0.27
2023-01-23T00:37:42.275Z,-0.32
2023-01-23T00:41:49.451Z,-0.44
2023-01-23T00:46:02.958Z,-0.32
2023-01-23T00:50:09.984Z,-0.37
2023-01-23T00:54:27.535Z,-0.37
2023-01-23T00:58:31.220Z,-0.40
2023-01-23T01:02:39.159Z,-0.40
2023-01-23T01:06:45.696Z,-0.28
2023-01-23T01:11:05.992Z,-0.43
2023-01-23T01:15:12.510Z,-0.43
2023-01-23T01:19:18.188Z,-0.45
2023-01-23T01:23:31.490Z,-0.34
2023-01-23T01:27:37.169Z,-0.43
2023-01-23T01:31:43.019Z,-0.36
2023-01-23T01:35:51.709Z,-0.36
2023-01-23T01:40:10.503Z,-0.31
2023-01-23T01:44:21.828Z,-0.23
2023-01-23T01:48:28.199Z,-0.42
2023-01-23T01:52:33.223Z,-0.33
2023-01-23T01:56:41.573Z,-0.50
2023-01-23T02:00:48.886Z,-0.40
2023-01-23T02:05:07.152Z,-0.27
2023-01-23T02:09:22.136Z,-0.36
2023-01-23T02:13:33.018Z,-0.35
2023-01-23T02:17:39.256Z,-0.22
2023-01-23T02:21:45.822Z,-0.23
2023-01-23T02:26:01.213Z,-0.27
2023-01-23T02:30:08.301Z,-0.34
2023-01-23T02:34:23.185Z,-0.37
2023-01-23T02:38:44.379Z,-0.31
2023-01-23T02:42:53.279Z,-0.26
2023-01-23T02:47:12.949Z,-0.21
2023-01-23T02:51:18.199Z,-0.27
2023-01-23T02:55:23.292Z,-0.40
2023-01-23T03:00:10.289Z,-0.28
2023-01-23T03:04:15.955Z,-0.32
2023-01-23T03:08:27.475Z,-0.20
2023-01-23T03:12:34.661Z,-0.26
2023-01-23T03:16:51.332Z,-0.23
2023-01-23T03:20:56.114Z,-0.16
2023-01-23T03:25:08.407Z,-0.11
2023-01-23T03:29:35.968Z,-0.11
2023-01-23T03:33:46.556Z,-0.17
2023-01-23T03:37:55.354Z,-0.19
2023-01-23T03:41:58.919Z,-0.17
2023-01-23T03:46:08.451Z,-0.21
2023-01-23T03:50:14.391Z,-0.19
2023-01-23T03:54:20.581Z,-0.10
2023-01-23T03:58:25.002Z,-0.04
2023-01-23T04:02:31.089Z,-0.03
2023-01-23T04:06:41.251Z,0.18
2023-01-23T04:10:47.110Z,0.05
2023-01-23T04:14:57.494Z,0.03
2023-01-23T04:19:03.068Z,0.08
2023-01-23T04:23:11.160Z,-0.19
2023-01-23T04:27:18.581Z,-0.01
2023-01-23T04:31:32.409Z,-0.13
2023-01-23T04:35:42.567Z,0.01
2023-01-23T04:40:08.332Z,0.05
2023-01-23T04:44:27.809Z,0.04
2023-01-23T04:48:40.972Z,0.06
2023-01-23T04:52:47.783Z,-0.08
2023-01-23T04:56:58.729Z,-0.03
2023-01-23T05:01:12.832Z,-0.11
2023-01-23T05:05:30.484Z,-0.10
2023-01-23T05:09:36.806Z,0.10
2023-01-23T05:13:48.244Z,0.02
2023-01-23T05:17:58.259Z,-0.06
2023-01-23T05:22:03.122Z,-0.04
2023-01-23T05:26:07.628Z,-0.18
2023-01-23T05:30:20.793Z,-0.18
2023-01-23T05:34:27.848Z,-0.09
2023-01-23T05:38:34.283Z,-0.11
2023-01-23T05:42:38.162Z,-0.25
2023-01-23T05:46:59.762Z,-0.18
2023-01-23T05:51:07.572Z,-0.38
2023-01-23T05:55:17.975Z,-0.42
2023-01-23T05:59:25.466Z,-0.01
2023-01-23T06:03:37.565Z,-0.31
2023-01-23T06:07:47.182Z,-0.27
2023-01-23T06:11:55.338Z,-0.42
2023-01-23T06:16:01.000Z,-0.06
2023-01-23T06:20:14.926Z,-0.17
2023-01-23T06:24:23.027Z,-0.13
2023-01-23T06:28:29.090Z,0.08
2023-01-23T06:32:39.713Z,-0.13
2023-01-23T06:41:08.163Z,-0.09
2023-01-23T06:45:14.021Z,0.06
2023-01-23T06:49:20.524Z,0.17
2023-01-23T06:53:27.881Z,0.15
2023-01-23T06:57:37.070Z,0.22
2023-01-23T07:01:42.777Z,0.03
2023-01-23T07:05:47.445Z,0.14
2023-01-23T07:09:53.737Z,0.00
2023-01-23T07:13:56.916Z,0.21
2023-01-23T07:18:00.003Z,0.00
2023-01-23T07:22:03.553Z,0.17
2023-01-23T07:26:09.792Z,-0.03
2023-01-23T07:30:14.185Z,0.01
2023-01-23T07:34:16.894Z,0.15
2023-01-23T07:38:19.623Z,0.06
2023-01-23T07:42:24.185Z,0.17
2023-01-23T07:46:30.338Z,0.22
2023-01-23T07:50:33.037Z,0.19
2023-01-23T07:54:40.031Z,0.09
2023-01-23T07:58:45.458Z,0.20
2023-01-23T08:02:48.557Z,0.00
2023-01-23T08:06:57.337Z,0.16
2023-01-23T08:11:00.075Z,0.28
2023-01-23T08:15:04.606Z,0.37
2023-01-23T08:19:07.661Z,0.23
2023-01-23T08:23:12.659Z,0.26
2023-01-23T08:27:15.465Z,0.26
2023-01-23T08:31:19.869Z,0.33
2023-01-23T08:35:29.092Z,0.39
2023-01-23T08:39:35.390Z,0.33
2023-01-23T08:43:38.644Z,0.27
2023-01-23T08:47:42.922Z,0.39
2023-01-23T08:51:50.824Z,0.43
2023-01-23T08:55:53.588Z,0.48
2023-01-23T08:59:56.628Z,0.61
2023-01-23T09:04:00.741Z,0.46
2023-01-23T09:08:06.393Z,0.50
2023-01-23T09:12:09.238Z,0.58
2023-01-23T09:16:16.037Z,0.68
2023-01-23T09:20:21.923Z,0.76
2023-01-23T09:24:26.226Z,0.73
2023-01-23T09:28:32.429Z,0.85
2023-01-23T09:32:35.088Z,0.94
2023-01-23T09:36:43.190Z,0.94
2023-01-23T09:40:51.683Z,1.14
2023-01-23T09:44:59.438Z,1.11
2023-01-23T09:49:05.609Z,1.20
2023-01-23T09:53:21.564Z,1.13
2023-01-23T09:57:45.793Z,1.13
2023-01-23T10:01:52.410Z,0.97
2023-01-23T10:06:05.447Z,1.12
2023-01-23T10:10:35.325Z,1.16
2023-01-23T10:14:51.468Z,1.22
2023-01-23T10:19:03.581Z,1.13
2023-01-23T10:23:12.868Z,1.02
2023-01-23T10:27:21.117Z,1.07
2023-01-23T10:31:36.945Z,1.28
2023-01-23T10:35:42.982Z,0.84
2023-01-23T10:39:50.819Z,1.13
2023-01-23T10:43:56.994Z,1.16
2023-01-23T10:47:59.950Z,1.21
2023-01-23T10:52:04.398Z,1.27
2023-01-23T10:56:15.981Z,1.27
2023-01-23T11:00:27.787Z,1.18
2023-01-23T11:04:34.567Z,1.25
2023-01-23T11:08:41.792Z,1.13
2023-01-23T11:12:52.929Z,1.15
2023-01-23T11:17:13.571Z,1.21
2023-01-23T11:21:24.315Z,1.19
2023-01-23T11:25:33.613Z,1.26
2023-01-23T11:29:55.484Z,1.24
2023-01-23T11:34:15.495Z,1.24
2023-01-23T11:38:30.644Z,1.21
2023-01-23T11:42:48.997Z,1.12
2023-01-23T11:47:14.664Z,1.27
2023-01-23T11:51:26.418Z,1.24
2023-01-23T11:55:57.071Z,1.11
2023-01-23T12:00:19.326Z,1.22
2023-01-23T12:05:07.505Z,1.27
2023-01-23T12:09:17.598Z,1.18
2023-01-23T12:13:37.064Z,1.20
2023-01-23T12:17:46.101Z,1.18
2023-01-23T12:22:02.070Z,1.22
2023-01-23T12:26:21.106Z,1.21
2023-01-23T12:30:51.108Z,1.18
2023-01-23T12:35:18.802Z,1.24
2023-01-23T12:39:39.523Z,1.14
2023-01-23T12:43:48.547Z,1.18
2023-01-23T12:47:56.913Z,1.09
2023-01-23T12:52:02.591Z,1.07
2023-01-23T12:56:09.515Z,1.01
2023-01-23T13:00:31.109Z,1.08
2023-01-23T13:04:58.627Z,0.91
2023-01-23T13:09:17.469Z,0.93
2023-01-23T13:13:28.209Z,0.80
2023-01-23T13:17:37.629Z,0.99
2023-01-23T13:21:58.309Z,0.95
2023-01-23T13:26:30.182Z,0.92
2023-01-23T13:31:01.104Z,0.95
2023-01-23T13:35:53.031Z,1.02
2023-01-23T13:40:06.713Z,0.96
2023-01-23T13:44:21.367Z,1.10
2023-01-23T14:20:47.962Z,0.94
2023-01-23T14:25:01.861Z,0.97
2023-01-23T14:29:28.963Z,1.13
2023-01-23T14:33:41.656Z,1.03
2023-01-23T14:37:44.761Z,1.02
2023-01-23T14:41:49.117Z,1.02
2023-01-23T14:45:59.491Z,0.98
2023-01-23T14:50:03.159Z,0.98
2023-01-23T14:54:10.398Z,1.06
2023-01-23T14:58:28.517Z,0.83
2023-01-23T15:02:35.863Z,0.77
2023-01-23T15:06:39.133Z,0.64
2023-01-23T15:10:46.613Z,0.95
2023-01-23T15:14:54.166Z,0.98
2023-01-23T15:19:02.875Z,0.98
2023-01-23T15:23:24.358Z,0.94
2023-01-23T15:27:29.011Z,0.62
2023-01-23T15:31:35.760Z,0.95
2023-01-23T15:35:40.292Z,0.92
2023-01-23T15:39:51.124Z,1.02
2023-01-23T15:43:54.087Z,0.80
2023-01-23T15:47:56.950Z,0.89
2023-01-23T15:52:02.916Z,0.74
2023-01-23T15:56:06.939Z,0.77
2023-01-23T16:00:16.307Z,0.59
2023-01-23T16:04:19.059Z,0.85
2023-01-23T16:08:31.298Z,0.87
2023-01-23T16:12:35.552Z,0.85
2023-01-23T16:16:38.662Z,0.82
2023-01-23T16:20:44.283Z,0.85
2023-01-23T16:24:48.525Z,0.64
2023-01-23T16:28:55.366Z,0.53
2023-01-23T16:33:00.027Z,0.67
2023-01-23T16:37:03.966Z,0.41
2023-01-23T16:41:10.677Z,0.31
2023-01-23T16:45:17.918Z,0.26
2023-01-23T16:49:21.712Z,0.40
2023-01-23T16:53:26.220Z,0.07
2023-01-23T16:57:30.472Z,-0.25
2023-01-23T17:01:35.277Z,-0.14
2023-01-23T17:05:38.728Z,0.19
2023-01-23T17:09:42.221Z,-0.07
2023-01-23T17:13:47.213Z,-0.27
2023-01-23T17:17:51.593Z,-0.09
2023-01-23T17:21:55.233Z,-0.21
2023-01-23T17:26:01.160Z,-0.44
2023-01-23T17:30:09.956Z,-0.09
2023-01-23T17:34:20.565Z,-0.15
2023-01-23T17:38:26.632Z,-0.38
2023-01-23T17:42:32.304Z,-0.27
2023-01-23T17:46:39.602Z,-0.41
2023-01-23T17:50:44.619Z,-0.32
2023-01-23T17:54:47.926Z,-0.49
2023-01-23T17:58:51.425Z,0.05
2023-01-23T18:03:00.949Z,-0.16
2023-01-23T18:07:04.594Z,-0.46
2023-01-23T18:11:25.039Z,-0.28
2023-01-23T18:15:33.345Z,-0.36
2023-01-23T18:19:42.799Z,-0.61
2023-01-23T18:23:47.312Z,-0.48
2023-01-23T18:27:55.354Z,-0.62
2023-01-23T18:32:15.415Z,-0.71
2023-01-23T18:36:50.220Z,-0.15
2023-01-23T18:41:07.849Z,-0.58
2023-01-23T18:45:15.007Z,-0.62
2023-01-23T18:49:32.886Z,-0.67
2023-01-23T18:53:48.445Z,-0.19
2023-01-23T18:58:09.041Z,-0.49
2023-01-23T19:02:42.859Z,-0.33
2023-01-23T19:06:47.205Z,-0.18
2023-01-23T19:11:09.132Z,0.36
2023-01-23T19:15:24.603Z,-0.01
2023-01-23T19:19:32.322Z,-0.19
2023-01-23T19:23:46.457Z,-0.44
2023-01-23T19:27:56.535Z,-0.65
2023-01-23T19:32:05.911Z,-0.57
2023-01-23T19:36:15.739Z,-0.14
2023-01-23T19:40:22.985Z,-0.11
2023-01-23T19:44:30.277Z,-0.64
2023-01-23T19:48:36.034Z,-0.46
2023-01-23T19:52:42.774Z,-0.47
2023-01-23T19:57:03.129Z,-0.57
2023-01-23T20:01:43.416Z,-0.49
2023-01-23T20:10:26.224Z,-0.77
2023-01-23T20:14:31.999Z,-0.67
2023-01-23T20:18:40.453Z,-0.52
2023-01-23T20:22:51.329Z,-0.39
2023-01-23T20:26:57.612Z,-0.47
2023-01-23T20:31:12.782Z,-0.12
2023-01-23T20:35:30.837Z,0.32
2023-01-23T20:39:35.018Z,0.07
2023-01-23T20:43:39.982Z,0.21
2023-01-23T20:47:53.328Z,0.15
2023-01-23T20:52:20.077Z,-0.08
2023-01-23T20:56:30.863Z,0.02
2023-01-23T21:00:33.751Z,0.19
2023-01-23T21:04:40.208Z,0.13
2023-01-23T21:08:54.187Z,0.43
2023-01-23T21:13:04.438Z,0.39
2023-01-23T21:17:12.131Z,0.27
2023-01-23T21:21:34.309Z,0.41
2023-01-23T21:25:43.088Z,0.43
2023-01-23T21:29:54.535Z,0.46
2023-01-23T21:34:06.135Z,0.48
2023-01-23T21:38:21.223Z,0.46
2023-01-23T21:42:33.263Z,0.45
2023-01-23T21:46:41.059Z,0.74
2023-01-23T21:50:54.384Z,0.71
2023-01-23T21:55:16.444Z,0.58
2023-01-23T21:59:25.142Z,0.54
2023-01-23T22:03:51.205Z,0.52
2023-01-23T22:08:02.675Z,0.56
2023-01-23T22:12:16.129Z,0.53
2023-01-23T22:16:31.925Z,0.52
2023-01-23T22:20:44.499Z,0.59
2023-01-23T22:24:48.510Z,0.41
2023-01-23T22:28:52.767Z,0.49
2023-01-23T22:33:01.199Z,0.52
2023-01-23T22:37:11.669Z,0.68
2023-01-23T22:41:21.225Z,0.48
2023-01-23T22:45:28.632Z,0.66
2023-01-23T22:49:41.602Z,0.53
2023-01-23T22:53:46.346Z,0.60
2023-01-23T22:57:53.948Z,0.60
2023-01-23T23:01:57.873Z,0.67
2023-01-23T23:06:17.961Z,0.54
2023-01-23T23:10:22.408Z,0.64
2023-01-23T23:14:35.969Z,0.55
2023-01-23T23:18:43.072Z,0.54
2023-01-23T23:22:51.690Z,0.69
2023-01-23T23:26:56.181Z,0.58
2023-01-23T23:31:04.730Z,0.78
2023-01-23T23:35:10.311Z,0.68
2023-01-23T23:39:15.177Z,0.60
2023-01-23T23:43:19.795Z,0.62
2023-01-23T23:47:25.792Z,0.56
2023-01-23T23:51:34.464Z,0.65
2023-01-23T23:55:42.951Z,0.62
2023-01-23T23:59:47.196Z,0.61
